Time;durP1;ratioP1;P1;durP2;ratioP2;P2;SDS_P1;SDS_P2;PMS_P1;PMS_P2;Temp;Humidity;BMP_temperature;BMP_pressure;BME280_temperature;BME280_humidity;BME280_pressure;Samples;Min_cycle;Max_cycle;Signal;HPM_P1;HPM_P2
2022/11/18 00:02:02;;;;;;;;;1.00;1.00;;;;;-147.17;100.00;-15917.19;4991933;28;51245;-46
2022/11/18 00:04:27;;;;;;;;;3.00;2.00;;;;;-147.17;100.00;-15917.19;4991679;28;51130;-45
2022/11/18 00:06:52;;;;;;;;;2.00;2.00;;;;;-147.17;100.00;-15917.19;4992745;28;51413;-46
2022/11/18 00:09:18;;;;;;;;;4.00;3.00;;;;;-147.17;100.00;-15917.19;4990223;28;61364;-46
2022/11/18 00:14:27;;;;;;;;;2.00;1.33;;;;;-147.17;100.00;-15917.19;4990493;28;51175;-45
2022/11/18 00:17:01;;;;;;;;;4.00;3.00;;;;;-147.17;100.00;-15917.19;4991505;28;51128;-46
2022/11/18 00:19:38;;;;;;;;;1.00;1.00;;;;;-147.17;100.00;-15917.19;4987909;28;52282;-45
2022/11/18 00:22:05;;;;;;;;;2.00;2.00;;;;;-147.17;100.00;-15917.19;4984651;28;52043;-45
2022/11/18 00:24:31;;;;;;;;;2.67;1.33;;;;;-147.17;100.00;-15917.19;4986722;28;51214;-45
2022/11/18 00:26:57;;;;;;;;;2.00;2.00;;;;;-147.17;100.00;-15917.19;4969748;28;51569;-45
2022/11/18 00:29:25;;;;;;;;;2.00;2.00;;;;;-147.17;100.00;-15917.19;4981788;28;51860;-45
2022/11/18 00:31:51;;;;;;;;;2.00;2.00;;;;;-147.17;100.00;-15917.19;4988806;28;51177;-46
2022/11/18 00:34:17;;;;;;;;;2.00;2.00;;;;;-147.17;100.00;-15917.19;4991671;28;51109;-46
2022/11/18 00:36:44;;;;;;;;;1.00;1.00;;;;;-147.17;100.00;-15917.19;4991764;28;51224;-46
2022/11/18 00:39:11;;;;;;;;;1.00;1.00;;;;;-147.17;100.00;-15917.19;4985826;28;52268;-44
2022/11/18 00:44:20;;;;;;;;;1.33;1.00;;;;;-147.17;100.00;-15917.19;4992283;28;51006;-45
2022/11/18 00:46:45;;;;;;;;;1.00;1.00;;;;;-147.17;100.00;-15917.19;4992168;28;50930;-45
2022/11/18 00:49:10;;;;;;;;;2.00;2.00;;;;;-147.17;100.00;-15917.19;4990295;28;51125;-44
2022/11/18 00:51:36;;;;;;;;;2.00;1.00;;;;;-147.17;100.00;-15917.19;4992470;28;51118;-46
2022/11/18 00:54:02;;;;;;;;;1.00;1.00;;;;;-147.17;100.00;-15917.19;4991933;28;51113;-45
2022/11/18 00:56:27;;;;;;;;;1.00;1.00;;;;;-147.17;100.00;-15917.19;4991990;28;51215;-45
2022/11/18 00:58:52;;;;;;;;;2.00;2.00;;;;;-147.17;100.00;-15917.19;4987345;28;51971;-44
2022/11/18 01:01:19;;;;;;;;;2.00;1.00;;;;;-147.17;100.00;-15917.19;4992559;28;51089;-45
2022/11/18 01:03:45;;;;;;;;;0.33;0.33;;;;;-147.17;100.00;-15917.19;4989055;28;51009;-45
2022/11/18 01:06:10;;;;;;;;;1.33;1.00;;;;;-147.17;100.00;-15917.19;4990406;28;51121;-45
2022/11/18 01:08:35;;;;;;;;;2.00;1.33;;;;;-147.17;100.00;-15917.19;4973139;28;52444;-45
2022/11/18 01:13:44;;;;;;;;;3.33;3.00;;;;;-147.17;100.00;-15917.19;4992097;28;51148;-45
2022/11/18 01:16:10;;;;;;;;;1.00;1.00;;;;;-147.17;100.00;-15917.19;4990925;28;51155;-45
2022/11/18 01:18:35;;;;;;;;;2.33;2.00;;;;;-147.17;100.00;-15917.19;4989579;28;51119;-45
2022/11/18 01:21:02;;;;;;;;;2.00;2.00;;;;;-147.17;100.00;-15917.19;4987104;28;51047;-45
2022/11/18 01:23:28;;;;;;;;;2.33;2.33;;;;;-147.17;100.00;-15917.19;4988945;28;51203;-46
2022/11/18 01:25:54;;;;;;;;;2.33;1.00;;;;;-147.17;100.00;-15917.19;4990407;28;51390;-46
2022/11/18 01:28:19;;;;;;;;;1.00;1.00;;;;;-147.17;100.00;-15917.19;4990004;28;52033;-46
2022/11/18 01:30:45;;;;;;;;;2.00;2.00;;;;;-147.17;100.00;-15917.19;4990754;28;51235;-45
2022/11/18 01:33:11;;;;;;;;;2.00;2.00;;;;;-147.17;100.00;-15917.19;4989760;28;51133;-47
2022/11/18 01:35:40;;;;;;;;;0.00;0.00;;;;;-147.17;100.00;-15917.19;4990288;28;51489;-45
2022/11/18 01:38:07;;;;;;;;;1.00;1.00;;;;;-147.17;100.00;-15917.19;4988978;28;51200;-45
2022/11/18 01:40:33;;;;;;;;;0.67;0.67;;;;;-147.17;100.00;-15917.19;4988487;28;51259;-45
2022/11/18 01:42:58;;;;;;;;;2.00;2.00;;;;;-147.17;100.00;-15917.19;4988895;28;51217;-45
2022/11/18 01:45:31;;;;;;;;;2.00;1.00;;;;;-147.17;100.00;-15917.19;4987907;28;51326;-44
2022/11/18 01:47:57;;;;;;;;;2.00;1.33;;;;;-147.17;100.00;-15917.19;4991151;28;52876;-45
2022/11/18 01:50:24;;;;;;;;;2.00;1.00;;;;;-147.17;100.00;-15917.19;4991346;28;51036;-45
2022/11/18 01:52:53;;;;;;;;;1.00;1.00;;;;;-147.17;100.00;-15917.19;4990842;28;51119;-46
2022/11/18 01:55:24;;;;;;;;;1.00;1.00;;;;;-147.17;100.00;-15917.19;4991765;28;51366;-46
2022/11/18 01:57:55;;;;;;;;;1.00;1.00;;;;;-147.17;100.00;-15917.19;4973410;28;52022;-46
2022/11/18 02:00:21;;;;;;;;;2.00;1.00;;;;;-147.17;100.00;-15917.19;4982872;28;52670;-44
2022/11/18 02:02:47;;;;;;;;;0.33;0.33;;;;;-147.17;100.00;-15917.19;4988502;28;51058;-46
2022/11/18 02:05:14;;;;;;;;;3.00;2.00;;;;;-147.17;100.00;-15917.19;4988670;28;51245;-44
2022/11/18 02:07:42;;;;;;;;;0.67;0.00;;;;;-147.17;100.00;-15917.19;4986074;28;51657;-44
2022/11/18 02:10:15;;;;;;;;;1.00;0.00;;;;;-147.17;100.00;-15917.19;4985331;28;51208;-45
2022/11/18 02:12:41;;;;;;;;;0.00;0.00;;;;;-147.17;100.00;-15917.19;4987662;28;51157;-45
2022/11/18 02:15:07;;;;;;;;;0.33;0.33;;;;;-147.17;100.00;-15917.19;4987010;28;51498;-45
2022/11/18 02:17:44;;;;;;;;;1.00;1.00;;;;;-147.17;100.00;-15917.19;4987653;28;51045;-45
2022/11/18 02:20:22;;;;;;;;;0.33;0.00;;;;;-147.17;100.00;-15917.19;4988366;28;51172;-45
2022/11/18 02:23:21;;;;;;;;;1.00;1.00;;;;;-147.17;100.00;-15917.19;4990699;28;51232;-45
2022/11/18 02:26:08;;;;;;;;;2.00;1.00;;;;;-147.17;100.00;-15917.19;4986361;28;51029;-45
2022/11/18 02:28:52;;;;;;;;;1.33;1.33;;;;;-147.17;100.00;-15917.19;4984641;28;51827;-45
2022/11/18 02:31:30;;;;;;;;;2.00;1.00;;;;;-147.17;100.00;-15917.19;4986169;28;52854;-45
2022/11/18 02:34:24;;;;;;;;;1.00;1.00;;;;;-147.17;100.00;-15917.19;4989964;28;51291;-45
2022/11/18 02:37:07;;;;;;;;;1.00;1.00;;;;;-147.17;100.00;-15917.19;4989721;28;51095;-46
2022/11/18 02:39:38;;;;;;;;;1.00;1.00;;;;;-147.17;100.00;-15917.19;4990279;28;51869;-45
2022/11/18 02:42:10;;;;;;;;;1.00;1.00;;;;;-147.17;100.00;-15917.19;4969842;28;52203;-45
2022/11/18 02:44:41;;;;;;;;;2.00;2.00;;;;;-147.17;100.00;-15917.19;4988439;28;51442;-46
2022/11/18 02:47:12;;;;;;;;;0.00;0.00;;;;;-147.17;100.00;-15917.19;4974224;28;51257;-46
2022/11/18 02:49:47;;;;;;;;;1.00;1.00;;;;;-147.17;100.00;-15917.19;4975569;28;51259;-45
2022/11/18 02:52:15;;;;;;;;;0.50;0.50;;;;;-147.17;100.00;-15917.19;4988889;28;51130;-45
2022/11/18 02:54:44;;;;;;;;;0.67;0.67;;;;;-147.17;100.00;-15917.19;4990649;28;50940;-45
2022/11/18 02:57:12;;;;;;;;;1.00;0.00;;;;;-147.17;100.00;-15917.19;4973821;28;51937;-45
2022/11/18 02:59:37;;;;;;;;;0.00;0.00;;;;;-147.17;100.00;-15917.19;4992398;28;51735;-45
2022/11/18 03:02:02;;;;;;;;;0.67;0.67;;;;;-147.17;100.00;-15917.19;4991779;28;51124;-45
2022/11/18 03:04:29;;;;;;;;;0.33;0.00;;;;;-147.17;100.00;-15917.19;4993738;28;51230;-45
2022/11/18 03:07:21;;;;;;;;;0.00;0.00;;;;;-147.17;100.00;-15917.19;4987915;28;51148;-45
2022/11/18 03:09:51;;;;;;;;;1.00;1.00;;;;;-147.17;100.00;-15917.19;4985996;28;51302;-45
2022/11/18 03:12:48;;;;;;;;;0.00;0.00;;;;;-147.17;100.00;-15917.19;4990944;28;51075;-46
2022/11/18 03:15:33;;;;;;;;;0.00;0.00;;;;;-147.17;100.00;-15917.19;4990627;28;51213;-45
2022/11/18 03:18:10;;;;;;;;;1.00;1.00;;;;;-147.17;100.00;-15917.19;4986636;28;51123;-46
2022/11/18 03:20:47;;;;;;;;;0.00;0.00;;;;;-147.17;100.00;-15917.19;4988986;28;51120;-51
2022/11/18 03:23:35;;;;;;;;;0.00;0.00;;;;;-147.17;100.00;-15917.19;4992310;28;51009;-46
2022/11/18 03:26:08;;;;;;;;;2.00;2.00;;;;;-147.17;100.00;-15917.19;4973732;28;51150;-46
2022/11/18 03:28:45;;;;;;;;;0.67;0.67;;;;;-147.17;100.00;-15917.19;4991786;28;51145;-45
2022/11/18 03:31:20;;;;;;;;;0.00;0.00;;;;;-147.17;100.00;-15917.19;4979349;28;51965;-46
2022/11/18 03:33:58;;;;;;;;;0.00;0.00;;;;;-147.17;100.00;-15917.19;4991191;28;50998;-45
2022/11/18 03:36:28;;;;;;;;;0.00;0.00;;;;;-147.17;100.00;-15917.19;4991533;28;51147;-45
2022/11/18 03:38:58;;;;;;;;;0.33;0.33;;;;;-147.17;100.00;-15917.19;4992352;28;51238;-45
2022/11/18 03:41:26;;;;;;;;;0.00;0.00;;;;;-147.17;100.00;-15917.19;4989391;28;53035;-45
2022/11/18 03:44:00;;;;;;;;;0.00;0.00;;;;;-147.17;100.00;-15917.19;4990013;28;51144;-45
2022/11/18 03:46:38;;;;;;;;;0.00;0.00;;;;;-147.17;100.00;-15917.19;4990452;28;51135;-45
2022/11/18 03:49:06;;;;;;;;;1.00;0.00;;;;;-147.17;100.00;-15917.19;4990648;28;51070;-45
2022/11/18 03:51:38;;;;;;;;;0.00;0.00;;;;;-147.17;100.00;-15917.19;4992706;28;51915;-46
2022/11/18 03:54:22;;;;;;;;;0.00;0.00;;;;;-147.17;100.00;-15917.19;4972135;28;51176;-46
2022/11/18 03:56:55;;;;;;;;;2.00;1.00;;;;;-147.17;100.00;-15917.19;4989143;28;51034;-45
2022/11/18 03:59:28;;;;;;;;;0.67;0.67;;;;;-147.17;100.00;-15917.19;4989358;28;51533;-46
2022/11/18 04:02:18;;;;;;;;;2.67;1.33;;;;;-147.17;100.00;-15917.19;4990076;28;51714;-46
2022/11/18 04:04:47;;;;;;;;;1.00;1.00;;;;;-147.17;100.00;-15917.19;4987858;28;51091;-46
2022/11/18 04:07:19;;;;;;;;;0.00;0.00;;;;;-147.17;100.00;-15917.19;4992144;28;51008;-47
2022/11/18 04:09:53;;;;;;;;;0.67;0.00;;;;;-147.17;100.00;-15917.19;4990668;28;51008;-47
2022/11/18 04:12:20;;;;;;;;;0.33;0.33;;;;;-147.17;100.00;-15917.19;4987835;28;51194;-45
2022/11/18 04:14:51;;;;;;;;;1.00;1.00;;;;;-147.17;100.00;-15917.19;4988882;28;51032;-46
2022/11/18 04:17:20;;;;;;;;;0.00;0.00;;;;;-147.17;100.00;-15917.19;4986683;28;51147;-46
2022/11/18 04:19:45;;;;;;;;;0.00;0.00;;;;;-147.17;100.00;-15917.19;4993632;28;51069;-45
2022/11/18 04:22:11;;;;;;;;;0.00;0.00;;;;;-147.17;100.00;-15917.19;4981364;28;52258;-45
2022/11/18 04:24:37;;;;;;;;;0.33;0.00;;;;;-147.17;100.00;-15917.19;4971435;28;51121;-46
2022/11/18 04:27:04;;;;;;;;;0.67;0.00;;;;;-147.17;100.00;-15917.19;4987442;28;51412;-46
2022/11/18 04:29:31;;;;;;;;;0.67;0.67;;;;;-147.17;100.00;-15917.19;4989619;28;51437;-45
2022/11/18 04:31:56;;;;;;;;;0.00;0.00;;;;;-147.17;100.00;-15917.19;4992489;28;52065;-45
2022/11/18 04:34:21;;;;;;;;;0.00;0.00;;;;;-147.17;100.00;-15917.19;4989821;28;51217;-45
2022/11/18 04:36:47;;;;;;;;;0.00;0.00;;;;;-147.17;100.00;-15917.19;4988541;28;51201;-46
2022/11/18 04:39:12;;;;;;;;;1.00;0.00;;;;;-147.17;100.00;-15917.19;4989066;28;51414;-45
2022/11/18 04:41:56;;;;;;;;;0.00;0.00;;;;;-147.17;100.00;-15917.19;4982859;28;51117;-46
2022/11/18 04:44:30;;;;;;;;;1.00;1.00;;;;;-147.17;100.00;-15917.19;4993138;28;51080;-45
2022/11/18 04:46:57;;;;;;;;;1.00;1.00;;;;;-147.17;100.00;-15917.19;4968833;28;51206;-46
2022/11/18 04:49:23;;;;;;;;;0.00;0.00;;;;;-147.17;100.00;-15917.19;4989577;28;51004;-46
2022/11/18 04:51:49;;;;;;;;;1.00;0.00;;;;;-147.17;100.00;-15917.19;4989328;28;52129;-46
2022/11/18 04:54:16;;;;;;;;;2.00;1.00;;;;;-147.17;100.00;-15917.19;4986418;28;51286;-46
2022/11/18 04:56:42;;;;;;;;;4.00;4.00;;;;;-147.17;100.00;-15917.19;4987147;28;51167;-46
2022/11/18 04:59:08;;;;;;;;;1.00;1.00;;;;;-147.17;100.00;-15917.19;4990127;28;51348;-47
2022/11/18 05:01:34;;;;;;;;;1.00;1.00;;;;;-147.17;100.00;-15917.19;4987593;28;51195;-46
2022/11/18 05:04:03;;;;;;;;;1.00;1.00;;;;;-147.17;100.00;-15917.19;4987552;28;53930;-45
2022/11/18 05:06:29;;;;;;;;;2.00;0.33;;;;;-147.17;100.00;-15917.19;4990991;28;52864;-45
2022/11/18 05:08:56;;;;;;;;;2.00;1.00;;;;;-147.17;100.00;-15917.19;4989091;28;51365;-46
2022/11/18 05:14:05;;;;;;;;;1.67;1.67;;;;;-147.17;100.00;-15917.19;4989758;28;51023;-45
2022/11/18 05:16:30;;;;;;;;;1.00;1.00;;;;;-147.17;100.00;-15917.19;4969014;28;51521;-45
2022/11/18 05:18:56;;;;;;;;;0.00;0.00;;;;;-147.17;100.00;-15917.19;4986788;28;51047;-45
2022/11/18 05:21:21;;;;;;;;;1.00;1.00;;;;;-147.17;100.00;-15917.19;4989692;28;52185;-46
2022/11/18 05:23:46;;;;;;;;;1.00;1.00;;;;;-147.17;100.00;-15917.19;4985937;28;51144;-45
2022/11/18 05:26:12;;;;;;;;;1.00;1.00;;;;;-147.17;100.00;-15917.19;4988203;28;54022;-44
2022/11/18 05:28:37;;;;;;;;;1.00;0.67;;;;;-147.17;100.00;-15917.19;4989247;28;51037;-46
2022/11/18 05:31:08;;;;;;;;;0.67;0.67;;;;;-147.17;100.00;-15917.19;4988614;28;51983;-46
2022/11/18 05:33:33;;;;;;;;;3.33;2.00;;;;;-147.17;100.00;-15917.19;4987381;28;51159;-45
2022/11/18 05:36:05;;;;;;;;;1.00;1.00;;;;;-147.17;100.00;-15917.19;4988713;28;51268;-45
2022/11/18 05:38:32;;;;;;;;;2.00;1.00;;;;;-147.17;100.00;-15917.19;4987578;28;51218;-45
2022/11/18 05:40:57;;;;;;;;;1.67;1.00;;;;;-147.17;100.00;-15917.19;4971424;28;51933;-46
2022/11/18 05:43:23;;;;;;;;;1.00;1.00;;;;;-147.17;100.00;-15917.19;4987342;28;51111;-45
2022/11/18 05:45:49;;;;;;;;;1.00;0.33;;;;;-147.17;100.00;-15917.19;4985666;28;51247;-45
2022/11/18 05:48:15;;;;;;;;;2.00;1.00;;;;;-147.17;100.00;-15917.19;4988092;28;51287;-45
2022/11/18 05:50:40;;;;;;;;;2.00;2.00;;;;;-147.17;100.00;-15917.19;4986900;28;51912;-46
2022/11/18 05:53:06;;;;;;;;;1.67;1.00;;;;;-147.17;100.00;-15917.19;4989541;28;51104;-47
2022/11/18 05:55:43;;;;;;;;;1.00;1.00;;;;;-147.17;100.00;-15917.19;4965971;28;51554;-46
2022/11/18 05:58:08;;;;;;;;;0.67;0.67;;;;;-147.17;100.00;-15917.19;4987027;28;51692;-45
2022/11/18 06:00:33;;;;;;;;;2.00;2.00;;;;;-147.17;100.00;-15917.19;4985084;28;52487;-46
2022/11/18 06:03:00;;;;;;;;;1.00;1.00;;;;;-147.17;100.00;-15917.19;4986833;28;51322;-46
2022/11/18 06:05:25;;;;;;;;;0.00;0.00;;;;;-147.17;100.00;-15917.19;4990215;28;51264;-46
2022/11/18 06:07:54;;;;;;;;;2.00;1.00;;;;;-147.17;100.00;-15917.19;4987962;28;51312;-45
2022/11/18 06:10:34;;;;;;;;;2.00;2.00;;;;;-147.17;100.00;-15917.19;4990539;28;51211;-46
2022/11/18 06:13:04;;;;;;;;;2.67;1.33;;;;;-147.17;100.00;-15917.19;4984130;28;51127;-45
2022/11/18 06:15:35;;;;;;;;;1.00;1.00;;;;;-147.17;100.00;-15917.19;4991851;28;51173;-45
2022/11/18 06:18:07;;;;;;;;;4.00;2.33;;;;;-147.17;100.00;-15917.19;4994971;28;51070;-46
2022/11/18 06:20:36;;;;;;;;;2.00;2.00;;;;;-147.17;100.00;-15917.19;4974159;28;51226;-46
2022/11/18 06:23:02;;;;;;;;;1.00;1.00;;;;;-147.17;100.00;-15917.19;4988661;28;51072;-46
2022/11/18 06:25:28;;;;;;;;;1.00;1.00;;;;;-147.17;100.00;-15917.19;4989255;28;51696;-45
2022/11/18 06:27:58;;;;;;;;;1.67;1.67;;;;;-147.17;100.00;-15917.19;4976410;28;51109;-46
2022/11/18 06:30:23;;;;;;;;;1.00;1.00;;;;;-147.17;100.00;-15917.19;4992522;28;51688;-47
2022/11/18 06:32:49;;;;;;;;;1.00;1.00;;;;;-147.17;100.00;-15917.19;4986199;28;51125;-46
2022/11/18 06:35:14;;;;;;;;;4.00;2.00;;;;;-147.17;100.00;-15917.19;4990069;28;51377;-46
2022/11/18 06:37:39;;;;;;;;;1.00;0.33;;;;;-147.17;100.00;-15917.19;4991370;28;51157;-45
2022/11/18 06:40:05;;;;;;;;;0.00;0.00;;;;;-147.17;100.00;-15917.19;4990662;28;51214;-46
2022/11/18 06:45:15;;;;;;;;;1.33;1.33;;;;;-147.17;100.00;-15917.19;4988740;28;55189;-46
2022/11/18 06:47:40;;;;;;;;;2.00;2.00;;;;;-147.17;100.00;-15917.19;4989513;28;51969;-45
2022/11/18 06:50:06;;;;;;;;;2.33;1.00;;;;;-147.17;100.00;-15917.19;4987005;28;53248;-46
2022/11/18 06:52:31;;;;;;;;;1.00;1.00;;;;;-147.17;100.00;-15917.19;4993106;28;51138;-46
2022/11/18 06:54:56;;;;;;;;;1.00;1.00;;;;;-147.17;100.00;-15917.19;4988873;28;51214;-46
2022/11/18 06:57:22;;;;;;;;;1.00;1.00;;;;;-147.17;100.00;-15917.19;4985195;28;51209;-46
2022/11/18 06:59:47;;;;;;;;;1.00;1.00;;;;;-147.17;100.00;-15917.19;4985727;28;52276;-46
2022/11/18 07:02:12;;;;;;;;;1.00;1.00;;;;;-147.17;100.00;-15917.19;4991694;28;51265;-46
2022/11/18 07:04:38;;;;;;;;;2.00;2.00;;;;;-147.17;100.00;-15917.19;4990863;28;51281;-46
2022/11/18 07:07:04;;;;;;;;;3.33;1.67;;;;;-147.17;100.00;-15917.19;4986674;28;51459;-45
2022/11/18 07:09:29;;;;;;;;;4.00;3.00;;;;;-147.17;100.00;-15917.19;4989164;28;51935;-45
2022/11/18 07:11:54;;;;;;;;;2.00;2.00;;;;;-147.17;100.00;-15917.19;4990910;28;51006;-44
2022/11/18 07:14:20;;;;;;;;;7.00;3.50;;;;;-147.17;100.00;-15917.19;4991962;28;50976;-45
2022/11/18 07:16:45;;;;;;;;;2.00;2.00;;;;;-147.17;100.00;-15917.19;4990439;28;53213;-45
2022/11/18 07:19:12;;;;;;;;;7.00;4.00;;;;;-147.17;100.00;-15917.19;4985098;28;51656;-46
2022/11/18 07:21:39;;;;;;;;;2.00;2.00;;;;;-147.17;100.00;-15917.19;4989092;28;51012;-45
2022/11/18 07:24:06;;;;;;;;;3.00;3.00;;;;;-147.17;100.00;-15917.19;4987916;28;51057;-45
2022/11/18 07:26:32;;;;;;;;;5.67;3.00;;;;;-147.17;100.00;-15917.19;4989883;28;51247;-45
2022/11/18 07:28:58;;;;;;;;;4.67;4.00;;;;;-147.17;100.00;-15917.19;4981834;28;51862;-45
2022/11/18 07:31:23;;;;;;;;;3.50;3.50;;;;;-147.17;100.00;-15917.19;4971847;28;51051;-46
2022/11/18 07:33:49;;;;;;;;;5.00;4.00;;;;;-147.17;100.00;-15917.19;4990590;28;51191;-46
2022/11/18 07:36:18;;;;;;;;;2.75;2.75;;;;;-147.17;100.00;-15917.19;4993792;28;51162;-45
2022/11/18 07:38:44;;;;;;;;;3.25;2.75;;;;;-147.17;100.00;-15917.19;4986872;28;51759;-46
2022/11/18 07:41:15;;;;;;;;;2.33;2.33;;;;;-147.17;100.00;-15917.19;4983388;28;51175;-45
2022/11/18 07:43:41;;;;;;;;;3.00;2.75;;;;;-147.17;100.00;-15917.19;4988517;28;51252;-45
2022/11/18 07:46:22;;;;;;;;;2.67;2.00;;;;;-147.17;100.00;-15917.19;4985669;28;51504;-46
2022/11/18 07:48:51;;;;;;;;;3.33;2.33;;;;;-147.17;100.00;-15917.19;4990834;28;52111;-46
2022/11/18 07:51:18;;;;;;;;;3.00;2.33;;;;;-147.17;100.00;-15917.19;4985716;28;51120;-46
2022/11/18 07:53:44;;;;;;;;;3.00;2.00;;;;;-147.17;100.00;-15917.19;4990409;28;51155;-46
2022/11/18 07:56:11;;;;;;;;;2.00;2.00;;;;;-147.17;100.00;-15917.19;4979446;28;51161;-45
2022/11/18 07:58:36;;;;;;;;;2.00;2.00;;;;;-147.17;100.00;-15917.19;4986270;28;52166;-46
2022/11/18 08:01:16;;;;;;;;;3.00;3.00;;;;;-147.17;100.00;-15917.19;4985928;28;51206;-46
2022/11/18 08:03:42;;;;;;;;;6.33;5.00;;;;;-147.17;100.00;-15917.19;4991713;28;51057;-45
2022/11/18 08:06:10;;;;;;;;;2.67;1.33;;;;;-147.17;100.00;-15917.19;4990256;28;52506;-46
2022/11/18 08:08:36;;;;;;;;;2.33;2.00;;;;;-147.17;100.00;-15917.19;4985872;28;51356;-46
2022/11/18 08:11:07;;;;;;;;;3.00;3.00;;;;;-147.17;100.00;-15917.19;4981008;28;52336;-46
2022/11/18 08:13:34;;;;;;;;;2.00;2.00;;;;;-147.17;100.00;-15917.19;4980940;28;51123;-46
2022/11/18 08:16:00;;;;;;;;;2.00;2.00;;;;;-147.17;100.00;-15917.19;4991259;28;53557;-46
2022/11/18 08:18:27;;;;;;;;;2.00;2.00;;;;;-147.17;100.00;-15917.19;4986597;28;53014;-46
2022/11/18 08:20:53;;;;;;;;;4.67;3.67;;;;;-147.17;100.00;-15917.19;4985858;28;51265;-45
2022/11/18 08:23:18;;;;;;;;;2.33;2.00;;;;;-147.17;100.00;-15917.19;4985885;28;51200;-46
2022/11/18 08:25:44;;;;;;;;;3.33;3.33;;;;;-147.17;100.00;-15917.19;4985189;28;51140;-47
2022/11/18 08:28:11;;;;;;;;;4.00;4.00;;;;;-147.17;100.00;-15917.19;4985126;28;52012;-46
2022/11/18 08:30:37;;;;;;;;;5.67;5.67;;;;;-147.17;100.00;-15917.19;4983633;28;51214;-46
2022/11/18 08:33:03;;;;;;;;;2.67;2.67;;;;;-147.17;100.00;-15917.19;4981346;28;50980;-44
2022/11/18 08:35:29;;;;;;;;;3.00;3.00;;;;;-147.17;100.00;-15917.19;4986101;28;50953;-45
2022/11/18 08:37:55;;;;;;;;;2.00;1.00;;;;;-147.17;100.00;-15917.19;4988991;28;51968;-46
2022/11/18 08:40:21;;;;;;;;;2.67;2.67;;;;;-147.17;100.00;-15917.19;4976357;28;51202;-47
2022/11/18 08:42:48;;;;;;;;;4.00;3.00;;;;;-147.17;100.00;-15917.19;4986915;28;51330;-46
2022/11/18 08:45:13;;;;;;;;;3.00;2.33;;;;;-147.17;100.00;-15917.19;4987379;28;51127;-45
2022/11/18 08:47:39;;;;;;;;;2.00;2.00;;;;;-147.17;100.00;-15917.19;4983070;28;51909;-46
2022/11/18 08:50:06;;;;;;;;;3.00;3.00;;;;;-147.17;100.00;-15917.19;4983246;28;51192;-45
2022/11/18 08:52:32;;;;;;;;;2.00;2.00;;;;;-147.17;100.00;-15917.19;4989767;28;51161;-45
2022/11/18 08:54:58;;;;;;;;;3.00;2.33;;;;;-147.17;100.00;-15917.19;4992044;28;51013;-46
2022/11/18 08:57:23;;;;;;;;;1.00;1.00;;;;;-147.17;100.00;-15917.19;4989164;28;51216;-45
2022/11/18 08:59:48;;;;;;;;;2.00;2.00;;;;;-147.17;100.00;-15917.19;4983220;28;51052;-46
2022/11/18 09:02:16;;;;;;;;;2.33;2.33;;;;;-147.17;100.00;-15917.19;4986812;28;51123;-46
2022/11/18 09:04:41;;;;;;;;;2.67;2.33;;;;;-147.17;100.00;-15917.19;4990806;28;51204;-45
2022/11/18 09:07:06;;;;;;;;;2.00;2.00;;;;;-147.17;100.00;-15917.19;4991046;28;50964;-46
2022/11/18 09:09:32;;;;;;;;;2.00;2.00;;;;;-147.17;100.00;-15917.19;4990290;28;51020;-45
2022/11/18 09:11:57;;;;;;;;;2.00;2.00;;;;;-147.17;100.00;-15917.19;4984139;28;51741;-46
2022/11/18 09:14:23;;;;;;;;;2.00;2.00;;;;;-147.17;100.00;-15917.19;4988527;28;51483;-46
2022/11/18 09:16:48;;;;;;;;;2.00;2.00;;;;;-147.17;100.00;-15917.19;4990091;28;51813;-45
2022/11/18 09:19:15;;;;;;;;;3.00;2.67;;;;;-147.17;100.00;-15917.19;4981390;28;51180;-45
2022/11/18 09:21:41;;;;;;;;;2.33;2.00;;;;;-147.17;100.00;-15917.19;4980691;28;51689;-45
2022/11/18 09:24:06;;;;;;;;;2.00;2.00;;;;;-147.17;100.00;-15917.19;4986601;28;51357;-46
2022/11/18 09:26:32;;;;;;;;;1.67;1.67;;;;;-147.17;100.00;-15917.19;4990650;28;51910;-45
2022/11/18 09:28:57;;;;;;;;;1.33;1.33;;;;;-147.17;100.00;-15917.19;4988451;28;51047;-45
2022/11/18 09:31:23;;;;;;;;;2.00;1.67;;;;;-147.17;100.00;-15917.19;4988932;28;51465;-45
2022/11/18 09:33:48;;;;;;;;;4.00;4.00;;;;;-147.17;100.00;-15917.19;4991370;28;51521;-45
2022/11/18 09:36:16;;;;;;;;;2.67;2.00;;;;;-147.17;100.00;-15917.19;4985583;28;54034;-46
2022/11/18 09:38:42;;;;;;;;;2.33;1.67;;;;;-147.17;100.00;-15917.19;4992260;28;51085;-46
2022/11/18 09:41:19;;;;;;;;;2.00;1.33;;;;;-147.17;100.00;-15917.19;4980659;28;51168;-45
2022/11/18 09:44:19;;;;;;;;;1.00;1.00;;;;;-147.17;100.00;-15917.19;4983564;28;52503;-45
2022/11/18 09:47:00;;;;;;;;;2.00;2.00;;;;;-147.17;100.00;-15917.19;4986481;28;51939;-46
2022/11/18 09:49:36;;;;;;;;;3.33;2.33;;;;;-147.17;100.00;-15917.19;4984057;28;51183;-45
2022/11/18 09:52:05;;;;;;;;;2.33;2.00;;;;;-147.17;100.00;-15917.19;4985488;28;51116;-46
2022/11/18 09:54:34;;;;;;;;;2.00;2.00;;;;;-147.17;100.00;-15917.19;4990262;28;51108;-46
2022/11/18 09:57:00;;;;;;;;;2.33;2.33;;;;;-147.17;100.00;-15917.19;4988233;28;51123;-46
2022/11/18 09:59:30;;;;;;;;;2.33;2.00;;;;;-147.17;100.00;-15917.19;4986623;28;51238;-45
2022/11/18 10:02:10;;;;;;;;;3.00;3.00;;;;;-147.17;100.00;-15917.19;4988147;28;51319;-45
2022/11/18 10:04:36;;;;;;;;;4.00;3.33;;;;;-147.17;100.00;-15917.19;4984467;28;51265;-47
2022/11/18 10:07:13;;;;;;;;;3.67;3.00;;;;;-147.17;100.00;-15917.19;4985862;28;51150;-46
2022/11/18 10:09:40;;;;;;;;;2.00;1.67;;;;;-147.17;100.00;-15917.19;4990062;28;50886;-46
2022/11/18 10:12:11;;;;;;;;;4.00;3.00;;;;;-147.17;100.00;-15917.19;4987416;28;52715;-46
2022/11/18 10:15:12;;;;;;;;;2.00;2.00;;;;;-147.17;100.00;-15917.19;4991292;28;51380;-46
2022/11/18 10:18:14;;;;;;;;;4.67;3.00;;;;;-147.17;100.00;-15917.19;4980766;28;52002;-46
2022/11/18 10:20:55;;;;;;;;;4.00;3.00;;;;;-147.17;100.00;-15917.19;4986889;28;51034;-45
2022/11/18 10:23:58;;;;;;;;;5.00;4.00;;;;;-147.17;100.00;-15917.19;4977463;28;51094;-45
2022/11/18 10:26:32;;;;;;;;;4.00;4.00;;;;;-147.17;100.00;-15917.19;4990637;28;51403;-47
2022/11/18 10:28:58;;;;;;;;;2.33;2.33;;;;;-147.17;100.00;-15917.19;4977804;28;51353;-46
2022/11/18 10:31:23;;;;;;;;;2.33;2.00;;;;;-147.17;100.00;-15917.19;4987943;28;54491;-46
2022/11/18 10:33:57;;;;;;;;;4.33;4.00;;;;;-147.17;100.00;-15917.19;4985586;28;51613;-46
2022/11/18 10:36:23;;;;;;;;;5.00;3.33;;;;;-147.17;100.00;-15917.19;4985223;28;51428;-46
2022/11/18 10:39:03;;;;;;;;;2.00;2.00;;;;;-147.17;100.00;-15917.19;4990481;28;51949;-48
2022/11/18 10:41:43;;;;;;;;;3.67;2.67;;;;;-147.17;100.00;-15917.19;4986407;28;51164;-48
2022/11/18 10:44:29;;;;;;;;;1.00;1.00;;;;;-147.17;100.00;-15917.19;4980697;28;51232;-46
2022/11/18 10:46:55;;;;;;;;;4.67;4.00;;;;;-147.17;100.00;-15917.19;4991651;28;51351;-49
2022/11/18 10:49:21;;;;;;;;;3.67;2.67;;;;;-147.17;100.00;-15917.19;4987288;28;51169;-48
2022/11/18 10:52:10;;;;;;;;;4.67;4.67;;;;;-147.17;100.00;-15917.19;4990059;28;52653;-46
2022/11/18 10:54:36;;;;;;;;;4.00;4.00;;;;;-147.17;100.00;-15917.19;4992400;28;51108;-50
2022/11/18 10:57:02;;;;;;;;;4.00;4.00;;;;;-147.17;100.00;-15917.19;4991316;28;52314;-50
2022/11/18 10:59:31;;;;;;;;;1.00;1.00;;;;;-147.17;100.00;-15917.19;4993861;28;50966;-51
2022/11/18 11:02:00;;;;;;;;;1.33;1.33;;;;;-147.17;100.00;-15917.19;4982657;28;51917;-50
2022/11/18 11:04:27;;;;;;;;;1.00;1.00;;;;;-147.17;100.00;-15917.19;4992498;28;52570;-51
2022/11/18 11:06:53;;;;;;;;;6.00;5.00;;;;;-147.17;100.00;-15917.19;4990629;28;51255;-53
2022/11/18 11:09:26;;;;;;;;;2.67;2.00;;;;;-147.17;100.00;-15917.19;4992538;28;52588;-48
2022/11/18 11:12:02;;;;;;;;;2.00;1.00;;;;;-147.17;100.00;-15917.19;4992534;28;51297;-50
2022/11/18 11:14:34;;;;;;;;;7.00;7.00;;;;;-147.17;100.00;-15917.19;4991986;28;51237;-49
2022/11/18 11:17:11;;;;;;;;;4.00;4.00;;;;;-147.17;100.00;-15917.19;4989359;28;51275;-48
2022/11/18 11:19:48;;;;;;;;;3.00;2.33;;;;;-147.17;100.00;-15917.19;4989805;28;51270;-50
2022/11/18 11:22:13;;;;;;;;;4.67;4.00;;;;;-147.17;100.00;-15917.19;4992996;28;51171;-49
2022/11/18 11:24:39;;;;;;;;;2.00;2.00;;;;;-147.17;100.00;-15917.19;4991589;28;51110;-48
2022/11/18 11:27:16;;;;;;;;;2.00;2.00;;;;;-147.17;100.00;-15917.19;4990581;28;50943;-50